EST,Max TemperatureF,Mean TemperatureF,Min TemperatureF,Max Dew PointF,MeanDew PointF,Min DewpointF,Max Humidity, Mean Humidity, Min Humidity, Max Sea Level PressureIn, Mean Sea Level PressureIn, Min Sea Level PressureIn, Max VisibilityMiles, Mean VisibilityMiles, Min VisibilityMiles, Max Wind SpeedMPH, Mean Wind SpeedMPH, Max Gust SpeedMPH,PrecipitationIn, CloudCover, Events, WindDirDegrees
2012-2-1,75,62,48,59,54,48,100,85,47,30.32,30.24,30.16,10,10,8,9,1,,0.00,1,,160
2012-2-2,73,62,50,63,57,50,100,94,61,30.23,30.18,30.13,10,7,0,13,1,,0.00,2,Fog-Rain,302
2012-2-3,73,60,46,59,53,46,100,90,57,30.30,30.26,30.20,10,7,0,16,2,22,0.00,3,Fog,42
2012-2-4,75,62,50,61,56,50,100,92,57,30.27,30.20,30.11,10,5,0,13,1,26,0.00,1,Fog,102
2012-2-5,80,66,51,66,60,52,100,91,54,30.12,30.07,30.00,10,6,0,12,1,,0.00,4,Fog,255
2012-2-6,68,62,55,63,58,55,100,94,78,30.16,30.10,30.06,10,5,0,12,2,,0.00,6,Fog,26
2012-2-7,68,57,46,55,53,46,100,90,64,30.16,30.12,30.06,10,6,0,10,5,,0.00,5,Fog,19
2012-2-8,71,56,42,50,44,41,100,84,33,30.19,30.13,30.06,10,6,0,9,1,,0.00,0,Fog,338
2012-2-9,66,54,42,50,42,34,100,73,37,30.25,30.18,30.13,10,10,9,8,3,,0.00,1,,13
2012-2-10,71,60,48,63,55,48,100,92,64,30.17,30.06,29.93,10,8,4,13,1,,0.01,4,Rain,288
2012-2-11,59,48,35,55,37,9,100,68,29,30.22,30.01,29.88,10,8,2,22,9,32,0.01,2,Rain,298
2012-2-12,48,36,23,19,12,7,80,48,20,30.42,30.31,30.23,10,10,10,15,9,24,0.00,0,,321
2012-2-13,59,38,17,37,24,14,100,76,29,30.34,30.25,30.16,10,10,10,9,1,,0.00,0,,71
2012-2-14,73,52,32,61,44,32,100,86,50,30.15,30.10,30.03,10,10,7,12,1,,0.00,4,Rain,189
2012-2-15,71,65,59,64,60,59,100,98,78,30.23,30.16,30.09,10,5,0,14,1,,0.00,8,Fog-Rain,58
2012-2-16,75,66,55,63,60,55,100,92,57,30.21,30.13,30.05,10,6,0,10,1,21,0.00,5,Fog,218
2012-2-17,68,62,57,66,62,57,100,99,94,30.09,30.04,30.01,10,5,0,7,1,,0.00,8,Fog-Rain,104
2012-2-18,71,64,57,63,60,57,100,95,60,30.06,29.98,29.87,10,5,0,10,1,,0.00,6,Fog,66
2012-2-19,80,70,57,68,60,48,100,83,44,29.93,29.82,29.69,10,9,6,31,6,44,0.00,4,,220
2012-2-20,57,50,44,48,42,37,87,75,54,30.28,30.13,29.93,10,10,10,18,10,24,0.00,1,,344
2012-2-21,68,54,39,54,46,39,100,90,56,30.29,30.20,30.12,10,10,5,12,1,,0.00,0,,201
2012-2-22,75,60,44,64,55,45,100,91,53,30.12,29.99,29.85,10,7,1,18,3,17,0.04,3,Rain-Thunderstorm,206
2012-2-23,80,72,64,68,67,64,100,88,61,29.90,29.86,29.81,10,10,7,23,10,30,0.00,6,,209
2012-2-24,82,70,59,68,64,46,100,79,58,30.05,29.92,29.85,10,10,2,28,13,37,0.22,5,Rain,244
2012-2-25,59,52,41,45,33,23,81,47,25,30.33,30.20,30.05,10,10,10,17,9,22,0.00,4,,330
2012-2-26,57,49,41,55,45,32,100,86,57,30.42,30.35,30.32,10,8,2,10,2,15,0.00,5,Rain,27
2012-2-27,71,62,53,66,60,54,100,98,83,30.34,30.31,30.27,10,6,0,9,1,,0.16,8,Fog-Rain,283
2012-2-28,71,65,59,63,61,59,100,94,73,30.35,30.30,30.26,10,8,0,10,2,,0.00,7,Fog,45
2012-2-29,82,70,59,66,62,59,100,87,51,30.27,30.18,30.08,10,6,0,13,2,,0.00,6,Fog,215